sensor_id;sensor_type;location;lat;lon;timestamp;pressure;altitude;pressure_sealevel;temperature;humidity
51468;BME280;37545;45.302;-122.946;2023-11-21T00:01:10;102146.38;;;13.04;56.41
51468;BME280;37545;45.302;-122.946;2023-11-21T00:03:39;102141.88;;;13.00;55.50
51468;BME280;37545;45.302;-122.946;2023-11-21T00:06:11;102133.91;;;12.95;59.03
51468;BME280;37545;45.302;-122.946;2023-11-21T00:08:39;102135.22;;;12.86;58.74
51468;BME280;37545;45.302;-122.946;2023-11-21T00:11:09;102138.31;;;12.77;57.75
51468;BME280;37545;45.302;-122.946;2023-11-21T00:13:38;102133.50;;;12.65;57.13
51468;BME280;37545;45.302;-122.946;2023-11-21T00:16:07;102127.78;;;12.53;57.01
51468;BME280;37545;45.302;-122.946;2023-11-21T00:18:36;102132.69;;;12.47;58.81
51468;BME280;37545;45.302;-122.946;2023-11-21T00:21:05;102134.22;;;12.42;59.67
51468;BME280;37545;45.302;-122.946;2023-11-21T00:23:34;102131.22;;;12.32;58.96
51468;BME280;37545;45.302;-122.946;2023-11-21T00:26:03;102136.91;;;12.25;61.52
51468;BME280;37545;45.302;-122.946;2023-11-21T00:28:33;102128.69;;;12.14;66.29
51468;BME280;37545;45.302;-122.946;2023-11-21T00:31:02;102133.38;;;12.04;60.81
51468;BME280;37545;45.302;-122.946;2023-11-21T00:33:31;102143.31;;;11.94;65.51
51468;BME280;37545;45.302;-122.946;2023-11-21T00:36:00;102135.97;;;11.86;62.52
51468;BME280;37545;45.302;-122.946;2023-11-21T00:38:28;102146.22;;;11.83;61.99
51468;BME280;37545;45.302;-122.946;2023-11-21T00:40:57;102126.22;;;11.80;64.19
51468;BME280;37545;45.302;-122.946;2023-11-21T00:43:25;102117.78;;;11.66;65.71
51468;BME280;37545;45.302;-122.946;2023-11-21T00:45:56;102116.19;;;11.50;66.90
51468;BME280;37545;45.302;-122.946;2023-11-21T00:48:24;102127.75;;;11.39;64.88
51468;BME280;37545;45.302;-122.946;2023-11-21T00:50:53;102123.06;;;11.32;66.84
51468;BME280;37545;45.302;-122.946;2023-11-21T00:53:22;102131.28;;;11.23;70.15
51468;BME280;37545;45.302;-122.946;2023-11-21T00:55:51;102133.50;;;11.16;67.43
51468;BME280;37545;45.302;-122.946;2023-11-21T00:58:23;102124.47;;;11.07;66.65
51468;BME280;37545;45.302;-122.946;2023-11-21T01:00:52;102126.81;;;11.03;67.65
51468;BME280;37545;45.302;-122.946;2023-11-21T01:03:22;102126.47;;;10.95;67.44
51468;BME280;37545;45.302;-122.946;2023-11-21T01:05:51;102127.22;;;10.76;70.36
51468;BME280;37545;45.302;-122.946;2023-11-21T01:08:20;102127.19;;;10.58;69.53
51468;BME280;37545;45.302;-122.946;2023-11-21T01:10:50;102122.44;;;10.50;70.24
51468;BME280;37545;45.302;-122.946;2023-11-21T01:13:19;102129.94;;;10.45;70.56
51468;BME280;37545;45.302;-122.946;2023-11-21T01:15:48;102128.75;;;10.38;72.71
51468;BME280;37545;45.302;-122.946;2023-11-21T01:18:16;102141.44;;;10.34;70.23
51468;BME280;37545;45.302;-122.946;2023-11-21T01:20:47;102137.72;;;10.29;71.77
51468;BME280;37545;45.302;-122.946;2023-11-21T01:23:15;102135.56;;;10.21;76.30
51468;BME280;37545;45.302;-122.946;2023-11-21T01:25:44;102133.47;;;10.14;78.05
51468;BME280;37545;45.302;-122.946;2023-11-21T01:28:13;102124.91;;;9.99;75.09
51468;BME280;37545;45.302;-122.946;2023-11-21T01:30:41;102130.06;;;9.99;77.69
51468;BME280;37545;45.302;-122.946;2023-11-21T01:33:10;102128.13;;;9.95;76.64
51468;BME280;37545;45.302;-122.946;2023-11-21T01:35:39;102126.03;;;9.88;75.42
51468;BME280;37545;45.302;-122.946;2023-11-21T01:38:09;102132.53;;;9.81;78.03
51468;BME280;37545;45.302;-122.946;2023-11-21T01:40:38;102134.69;;;9.73;75.97
51468;BME280;37545;45.302;-122.946;2023-11-21T01:43:07;102138.97;;;9.73;76.66
51468;BME280;37545;45.302;-122.946;2023-11-21T01:45:36;102135.34;;;9.69;78.86
51468;BME280;37545;45.302;-122.946;2023-11-21T01:48:06;102124.03;;;9.67;76.42
51468;BME280;37545;45.302;-122.946;2023-11-21T01:50:35;102134.91;;;9.61;80.32
51468;BME280;37545;45.302;-122.946;2023-11-21T01:53:04;102137.06;;;9.54;80.33
51468;BME280;37545;45.302;-122.946;2023-11-21T01:55:35;102140.28;;;9.50;78.23
51468;BME280;37545;45.302;-122.946;2023-11-21T01:58:05;102145.91;;;9.42;78.24
51468;BME280;37545;45.302;-122.946;2023-11-21T02:00:34;102149.31;;;9.41;77.58
51468;BME280;37545;45.302;-122.946;2023-11-21T02:03:03;102139.34;;;9.33;80.16
51468;BME280;37545;45.302;-122.946;2023-11-21T02:05:33;102145.41;;;9.33;78.13
51468;BME280;37545;45.302;-122.946;2023-11-21T02:08:02;102132.84;;;9.25;78.44
51468;BME280;37545;45.302;-122.946;2023-11-21T02:10:31;102130.81;;;9.19;80.74
51468;BME280;37545;45.302;-122.946;2023-11-21T02:13:01;102122.56;;;9.10;78.58
51468;BME280;37545;45.302;-122.946;2023-11-21T02:15:30;102120.75;;;9.09;78.11
51468;BME280;37545;45.302;-122.946;2023-11-21T02:17:58;102113.81;;;9.08;76.81
51468;BME280;37545;45.302;-122.946;2023-11-21T02:20:29;102121.63;;;9.09;79.33
51468;BME280;37545;45.302;-122.946;2023-11-21T02:22:59;102118.97;;;9.08;78.61
51468;BME280;37545;45.302;-122.946;2023-11-21T02:25:29;102123.94;;;9.05;76.97
51468;BME280;37545;45.302;-122.946;2023-11-21T02:27:59;102131.63;;;9.03;74.85
51468;BME280;37545;45.302;-122.946;2023-11-21T02:30:28;102120.59;;;9.06;77.76
51468;BME280;37545;45.302;-122.946;2023-11-21T02:32:58;102115.94;;;9.00;76.31
51468;BME280;37545;45.302;-122.946;2023-11-21T02:35:27;102117.63;;;8.99;77.55
51468;BME280;37545;45.302;-122.946;2023-11-21T02:37:59;102135.00;;;9.02;77.16
51468;BME280;37545;45.302;-122.946;2023-11-21T02:40:27;102130.38;;;8.96;78.23
51468;BME280;37545;45.302;-122.946;2023-11-21T02:42:59;102134.56;;;8.94;79.63
51468;BME280;37545;45.302;-122.946;2023-11-21T02:45:28;102133.41;;;8.89;78.75
51468;BME280;37545;45.302;-122.946;2023-11-21T02:47:56;102136.97;;;8.91;82.33
51468;BME280;37545;45.302;-122.946;2023-11-21T02:50:25;102127.38;;;8.89;80.56
51468;BME280;37545;45.302;-122.946;2023-11-21T02:52:54;102131.44;;;8.85;76.91
51468;BME280;37545;45.302;-122.946;2023-11-21T02:55:25;102141.34;;;8.77;77.80
51468;BME280;37545;45.302;-122.946;2023-11-21T02:57:54;102146.56;;;8.79;77.48
51468;BME280;37545;45.302;-122.946;2023-11-21T03:00:24;102141.41;;;8.79;79.20
51468;BME280;37545;45.302;-122.946;2023-11-21T03:02:53;102141.22;;;8.76;79.04
51468;BME280;37545;45.302;-122.946;2023-11-21T03:05:22;102137.41;;;8.69;80.71
51468;BME280;37545;45.302;-122.946;2023-11-21T03:07:51;102131.78;;;8.62;81.57
51468;BME280;37545;45.302;-122.946;2023-11-21T03:10:20;102132.31;;;8.56;81.21
51468;BME280;37545;45.302;-122.946;2023-11-21T03:12:51;102129.81;;;8.57;83.41
51468;BME280;37545;45.302;-122.946;2023-11-21T03:15:19;102118.63;;;8.57;82.38
51468;BME280;37545;45.302;-122.946;2023-11-21T03:17:48;102118.63;;;8.57;81.93
51468;BME280;37545;45.302;-122.946;2023-11-21T03:20:20;102107.38;;;8.56;81.67
51468;BME280;37545;45.302;-122.946;2023-11-21T03:22:48;102115.94;;;8.55;81.94
51468;BME280;37545;45.302;-122.946;2023-11-21T03:25:17;102099.91;;;8.46;83.13
51468;BME280;37545;45.302;-122.946;2023-11-21T03:27:56;102112.97;;;8.49;85.08
51468;BME280;37545;45.302;-122.946;2023-11-21T03:30:24;102111.81;;;8.44;84.70
51468;BME280;37545;45.302;-122.946;2023-11-21T03:32:53;102124.31;;;8.38;85.71
51468;BME280;37545;45.302;-122.946;2023-11-21T03:35:22;102131.00;;;8.34;85.77
51468;BME280;37545;45.302;-122.946;2023-11-21T03:37:51;102133.28;;;8.30;86.71
51468;BME280;37545;45.302;-122.946;2023-11-21T03:40:19;102128.34;;;8.19;90.89
51468;BME280;37545;45.302;-122.946;2023-11-21T03:42:49;102123.94;;;8.04;94.08
51468;BME280;37545;45.302;-122.946;2023-11-21T03:45:20;102126.06;;;7.96;95.26
51468;BME280;37545;45.302;-122.946;2023-11-21T03:47:48;102115.88;;;7.84;97.09
51468;BME280;37545;45.302;-122.946;2023-11-21T03:50:20;102119.88;;;7.79;97.85
51468;BME280;37545;45.302;-122.946;2023-11-21T03:52:49;102109.06;;;7.71;99.92
51468;BME280;37545;45.302;-122.946;2023-11-21T03:55:17;102095.53;;;7.61;99.10
51468;BME280;37545;45.302;-122.946;2023-11-21T03:57:46;102085.53;;;7.52;99.80
51468;BME280;37545;45.302;-122.946;2023-11-21T04:00:15;102078.00;;;7.42;99.77
51468;BME280;37545;45.302;-122.946;2023-11-21T04:02:46;102091.09;;;7.45;99.76
51468;BME280;37545;45.302;-122.946;2023-11-21T04:05:14;102097.91;;;7.44;98.69
51468;BME280;37545;45.302;-122.946;2023-11-21T04:07:43;102102.16;;;7.44;99.42
51468;BME280;37545;45.302;-122.946;2023-11-21T04:10:12;102100.28;;;7.41;98.44
51468;BME280;37545;45.302;-122.946;2023-11-21T04:12:40;102101.19;;;7.42;98.15
51468;BME280;37545;45.302;-122.946;2023-11-21T04:15:13;102103.69;;;7.40;98.24
51468;BME280;37545;45.302;-122.946;2023-11-21T04:17:42;102108.91;;;7.42;97.46
51468;BME280;37545;45.302;-122.946;2023-11-21T04:20:13;102101.88;;;7.39;98.24
51468;BME280;37545;45.302;-122.946;2023-11-21T04:22:42;102098.22;;;7.36;97.96
51468;BME280;37545;45.302;-122.946;2023-11-21T04:25:13;102107.25;;;7.29;97.34
51468;BME280;37545;45.302;-122.946;2023-11-21T04:27:43;102110.41;;;7.25;97.79
51468;BME280;37545;45.302;-122.946;2023-11-21T04:30:12;102113.38;;;7.18;98.39
51468;BME280;37545;45.302;-122.946;2023-11-21T04:32:41;102106.94;;;7.11;98.83
51468;BME280;37545;45.302;-122.946;2023-11-21T04:35:09;102123.44;;;7.14;98.81
51468;BME280;37545;45.302;-122.946;2023-11-21T04:37:40;102124.25;;;7.13;98.57
51468;BME280;37545;45.302;-122.946;2023-11-21T04:40:09;102127.72;;;7.14;98.50
51468;BME280;37545;45.302;-122.946;2023-11-21T04:42:38;102131.78;;;7.10;98.56
51468;BME280;37545;45.302;-122.946;2023-11-21T04:45:10;102128.00;;;7.05;99.03
51468;BME280;37545;45.302;-122.946;2023-11-21T04:47:42;102129.38;;;7.00;100.00
51468;BME280;37545;45.302;-122.946;2023-11-21T04:50:11;102128.09;;;6.93;100.00
51468;BME280;37545;45.302;-122.946;2023-11-21T04:52:41;102117.41;;;6.87;100.00
51468;BME280;37545;45.302;-122.946;2023-11-21T04:55:10;102113.84;;;6.85;100.00
51468;BME280;37545;45.302;-122.946;2023-11-21T04:57:39;102114.72;;;6.86;100.00
51468;BME280;37545;45.302;-122.946;2023-11-21T05:00:09;102106.00;;;6.84;100.00
51468;BME280;37545;45.302;-122.946;2023-11-21T05:02:39;102101.25;;;6.77;100.00
51468;BME280;37545;45.302;-122.946;2023-11-21T05:05:08;102101.16;;;6.75;100.00
51468;BME280;37545;45.302;-122.946;2023-11-21T05:07:37;102106.88;;;6.71;100.00
51468;BME280;37545;45.302;-122.946;2023-11-21T05:10:08;102109.13;;;6.66;100.00
51468;BME280;37545;45.302;-122.946;2023-11-21T05:12:39;102096.56;;;6.58;100.00
51468;BME280;37545;45.302;-122.946;2023-11-21T05:15:09;102086.19;;;6.56;100.00
51468;BME280;37545;45.302;-122.946;2023-11-21T05:17:37;102085.28;;;6.56;100.00
51468;BME280;37545;45.302;-122.946;2023-11-21T05:20:09;102074.78;;;6.53;100.00
51468;BME280;37545;45.302;-122.946;2023-11-21T05:22:38;102073.59;;;6.47;100.00
51468;BME280;37545;45.302;-122.946;2023-11-21T05:25:09;102065.25;;;6.38;100.00
51468;BME280;37545;45.302;-122.946;2023-11-21T05:27:37;102064.06;;;6.33;100.00
51468;BME280;37545;45.302;-122.946;2023-11-21T05:30:07;102062.19;;;6.31;100.00
51468;BME280;37545;45.302;-122.946;2023-11-21T05:32:39;102066.31;;;6.28;100.00
51468;BME280;37545;45.302;-122.946;2023-11-21T05:35:08;102072.22;;;6.27;100.00
51468;BME280;37545;45.302;-122.946;2023-11-21T05:37:44;102070.56;;;6.28;100.00
51468;BME280;37545;45.302;-122.946;2023-11-21T05:40:15;102076.28;;;6.24;100.00
51468;BME280;37545;45.302;-122.946;2023-11-21T05:42:44;102065.69;;;6.19;100.00
51468;BME280;37545;45.302;-122.946;2023-11-21T05:45:13;102070.53;;;6.15;100.00
51468;BME280;37545;45.302;-122.946;2023-11-21T05:47:44;102075.22;;;6.08;100.00
51468;BME280;37545;45.302;-122.946;2023-11-21T05:50:14;102070.78;;;6.06;100.00
51468;BME280;37545;45.302;-122.946;2023-11-21T05:52:43;102073.03;;;6.01;100.00
51468;BME280;37545;45.302;-122.946;2023-11-21T05:55:14;102059.19;;;5.99;100.00
51468;BME280;37545;45.302;-122.946;2023-11-21T05:57:43;102072.03;;;5.99;100.00
51468;BME280;37545;45.302;-122.946;2023-11-21T06:00:13;102056.41;;;5.96;100.00
51468;BME280;37545;45.302;-122.946;2023-11-21T06:02:46;102050.41;;;5.96;100.00
51468;BME280;37545;45.302;-122.946;2023-11-21T06:05:17;102039.19;;;5.95;100.00
51468;BME280;37545;45.302;-122.946;2023-11-21T06:07:49;102039.44;;;5.98;100.00
51468;BME280;37545;45.302;-122.946;2023-11-21T06:10:20;102042.19;;;6.01;100.00
51468;BME280;37545;45.302;-122.946;2023-11-21T06:12:50;102043.00;;;6.00;100.00
51468;BME280;37545;45.302;-122.946;2023-11-21T06:15:19;102042.09;;;6.00;100.00
51468;BME280;37545;45.302;-122.946;2023-11-21T06:17:51;102044.34;;;5.95;100.00
51468;BME280;37545;45.302;-122.946;2023-11-21T06:20:21;102040.88;;;5.95;100.00
51468;BME280;37545;45.302;-122.946;2023-11-21T06:22:51;102027.88;;;5.93;100.00
51468;BME280;37545;45.302;-122.946;2023-11-21T06:25:23;102035.28;;;5.88;100.00
51468;BME280;37545;45.302;-122.946;2023-11-21T06:27:52;102044.28;;;5.82;100.00
51468;BME280;37545;45.302;-122.946;2023-11-21T06:30:21;102038.34;;;5.83;100.00
51468;BME280;37545;45.302;-122.946;2023-11-21T06:32:50;102035.66;;;5.81;100.00
51468;BME280;37545;45.302;-122.946;2023-11-21T06:35:18;102025.06;;;5.77;100.00
51468;BME280;37545;45.302;-122.946;2023-11-21T06:37:47;102022.28;;;5.74;100.00
51468;BME280;37545;45.302;-122.946;2023-11-21T06:40:16;102017.63;;;5.68;100.00
51468;BME280;37545;45.302;-122.946;2023-11-21T06:42:47;102014.72;;;5.63;100.00
51468;BME280;37545;45.302;-122.946;2023-11-21T06:45:16;102009.38;;;5.60;100.00
51468;BME280;37545;45.302;-122.946;2023-11-21T06:47:45;102004.25;;;5.60;100.00
51468;BME280;37545;45.302;-122.946;2023-11-21T06:50:13;101996.66;;;5.62;100.00
51468;BME280;37545;45.302;-122.946;2023-11-21T06:52:49;102008.66;;;5.75;100.00
51468;BME280;37545;45.302;-122.946;2023-11-21T06:55:18;102008.97;;;5.79;100.00
51468;BME280;37545;45.302;-122.946;2023-11-21T06:57:48;102018.66;;;5.83;100.00
51468;BME280;37545;45.302;-122.946;2023-11-21T07:00:20;102031.75;;;5.86;100.00
51468;BME280;37545;45.302;-122.946;2023-11-21T07:02:49;102019.88;;;5.88;100.00
51468;BME280;37545;45.302;-122.946;2023-11-21T07:05:17;102024.44;;;5.93;100.00
51468;BME280;37545;45.302;-122.946;2023-11-21T07:07:47;102017.88;;;5.96;100.00
51468;BME280;37545;45.302;-122.946;2023-11-21T07:10:16;102001.59;;;5.96;100.00
51468;BME280;37545;45.302;-122.946;2023-11-21T07:12:45;102006.81;;;5.97;100.00
51468;BME280;37545;45.302;-122.946;2023-11-21T07:15:15;102005.03;;;5.96;100.00
51468;BME280;37545;45.302;-122.946;2023-11-21T07:17:45;101996.53;;;5.97;100.00
51468;BME280;37545;45.302;-122.946;2023-11-21T07:20:14;101985.38;;;5.97;100.00
51468;BME280;37545;45.302;-122.946;2023-11-21T07:22:44;101988.81;;;5.97;100.00
51468;BME280;37545;45.302;-122.946;2023-11-21T07:25:13;101980.00;;;5.94;100.00
51468;BME280;37545;45.302;-122.946;2023-11-21T07:27:41;101977.13;;;5.89;100.00
51468;BME280;37545;45.302;-122.946;2023-11-21T07:30:11;101968.09;;;5.82;100.00
51468;BME280;37545;45.302;-122.946;2023-11-21T07:32:42;101971.66;;;5.84;100.00
51468;BME280;37545;45.302;-122.946;2023-11-21T07:35:13;101966.53;;;5.84;100.00
51468;BME280;37545;45.302;-122.946;2023-11-21T07:37:46;101959.81;;;5.86;100.00
51468;BME280;37545;45.302;-122.946;2023-11-21T07:40:15;101941.63;;;5.83;100.00
51468;BME280;37545;45.302;-122.946;2023-11-21T07:42:44;101944.28;;;5.85;100.00
51468;BME280;37545;45.302;-122.946;2023-11-21T07:45:12;101943.41;;;5.84;100.00
51468;BME280;37545;45.302;-122.946;2023-11-21T07:47:43;101940.91;;;5.86;100.00
51468;BME280;37545;45.302;-122.946;2023-11-21T07:50:11;101935.72;;;5.84;100.00
51468;BME280;37545;45.302;-122.946;2023-11-21T07:52:40;101926.13;;;5.82;100.00
51468;BME280;37545;45.302;-122.946;2023-11-21T07:55:08;101929.66;;;5.84;100.00
51468;BME280;37545;45.302;-122.946;2023-11-21T07:57:38;101927.78;;;5.81;100.00
51468;BME280;37545;45.302;-122.946;2023-11-21T08:00:07;101915.94;;;5.83;100.00
51468;BME280;37545;45.302;-122.946;2023-11-21T08:02:38;101906.53;;;5.84;100.00
51468;BME280;37545;45.302;-122.946;2023-11-21T08:05:10;101908.34;;;5.85;100.00
51468;BME280;37545;45.302;-122.946;2023-11-21T08:07:38;101902.50;;;5.87;100.00
51468;BME280;37545;45.302;-122.946;2023-11-21T08:10:08;101895.69;;;5.88;100.00
51468;BME280;37545;45.302;-122.946;2023-11-21T08:12:38;101904.50;;;5.92;100.00
51468;BME280;37545;45.302;-122.946;2023-11-21T08:15:09;101902.00;;;5.93;100.00
51468;BME280;37545;45.302;-122.946;2023-11-21T08:17:38;101893.56;;;5.94;100.00
51468;BME280;37545;45.302;-122.946;2023-11-21T08:20:09;101892.19;;;5.99;100.00
51468;BME280;37545;45.302;-122.946;2023-11-21T08:22:38;101896.56;;;6.00;100.00
51468;BME280;37545;45.302;-122.946;2023-11-21T08:25:08;101894.88;;;6.01;100.00
51468;BME280;37545;45.302;-122.946;2023-11-21T08:27:37;101889.63;;;5.99;100.00
51468;BME280;37545;45.302;-122.946;2023-11-21T08:30:06;101890.63;;;6.01;100.00
51468;BME280;37545;45.302;-122.946;2023-11-21T08:32:35;101889.03;;;6.03;100.00
51468;BME280;37545;45.302;-122.946;2023-11-21T08:35:04;101882.91;;;6.01;100.00
51468;BME280;37545;45.302;-122.946;2023-11-21T08:37:35;101889.72;;;6.01;100.00
51468;BME280;37545;45.302;-122.946;2023-11-21T08:40:06;101885.28;;;5.98;100.00
51468;BME280;37545;45.302;-122.946;2023-11-21T08:42:38;101883.28;;;5.94;100.00
51468;BME280;37545;45.302;-122.946;2023-11-21T08:45:08;101879.19;;;5.84;100.00
51468;BME280;37545;45.302;-122.946;2023-11-21T08:47:37;101893.69;;;5.84;100.00
51468;BME280;37545;45.302;-122.946;2023-11-21T08:50:07;101877.91;;;5.78;100.00
51468;BME280;37545;45.302;-122.946;2023-11-21T08:52:37;101871.75;;;5.76;100.00
51468;BME280;37545;45.302;-122.946;2023-11-21T08:55:07;101879.16;;;5.71;100.00
51468;BME280;37545;45.302;-122.946;2023-11-21T08:57:38;101868.69;;;5.68;100.00
51468;BME280;37545;45.302;-122.946;2023-11-21T09:00:09;101863.56;;;5.68;100.00
51468;BME280;37545;45.302;-122.946;2023-11-21T09:02:38;101863.59;;;5.56;100.00
51468;BME280;37545;45.302;-122.946;2023-11-21T09:05:09;101867.84;;;5.56;100.00
51468;BME280;37545;45.302;-122.946;2023-11-21T09:07:40;101865.16;;;5.54;100.00
51468;BME280;37545;45.302;-122.946;2023-11-21T09:10:09;101855.50;;;5.50;100.00
51468;BME280;37545;45.302;-122.946;2023-11-21T09:12:38;101861.00;;;5.43;100.00
51468;BME280;37545;45.302;-122.946;2023-11-21T09:15:07;101870.06;;;5.38;100.00
51468;BME280;37545;45.302;-122.946;2023-11-21T09:17:38;101862.03;;;5.33;100.00
51468;BME280;37545;45.302;-122.946;2023-11-21T09:20:07;101862.72;;;5.31;100.00
51468;BME280;37545;45.302;-122.946;2023-11-21T09:22:38;101853.25;;;5.30;100.00
51468;BME280;37545;45.302;-122.946;2023-11-21T09:25:07;101851.25;;;5.25;100.00
51468;BME280;37545;45.302;-122.946;2023-11-21T09:27:36;101843.94;;;5.18;100.00
51468;BME280;37545;45.302;-122.946;2023-11-21T09:30:06;101833.94;;;5.10;100.00
51468;BME280;37545;45.302;-122.946;2023-11-21T09:32:38;101855.34;;;5.10;100.00
51468;BME280;37545;45.302;-122.946;2023-11-21T09:35:07;101850.19;;;5.10;100.00
51468;BME280;37545;45.302;-122.946;2023-11-21T09:37:36;101846.63;;;5.08;100.00
51468;BME280;37545;45.302;-122.946;2023-11-21T09:40:10;101840.19;;;5.01;100.00
51468;BME280;37545;45.302;-122.946;2023-11-21T09:42:42;101849.56;;;5.01;100.00
51468;BME280;37545;45.302;-122.946;2023-11-21T09:45:17;101854.94;;;5.04;100.00
51468;BME280;37545;45.302;-122.946;2023-11-21T09:47:47;101844.06;;;5.08;100.00
51468;BME280;37545;45.302;-122.946;2023-11-21T09:50:17;101832.34;;;5.12;100.00
51468;BME280;37545;45.302;-122.946;2023-11-21T09:52:53;101825.53;;;5.12;100.00
51468;BME280;37545;45.302;-122.946;2023-11-21T09:55:27;101824.97;;;5.16;100.00
51468;BME280;37545;45.302;-122.946;2023-11-21T09:58:07;101819.28;;;5.20;100.00
51468;BME280;37545;45.302;-122.946;2023-11-21T10:00:40;101825.41;;;5.22;100.00
51468;BME280;37545;45.302;-122.946;2023-11-21T10:03:09;101834.97;;;5.25;100.00
51468;BME280;37545;45.302;-122.946;2023-11-21T10:05:38;101846.31;;;5.29;100.00
51468;BME280;37545;45.302;-122.946;2023-11-21T10:08:08;101840.44;;;5.30;100.00
51468;BME280;37545;45.302;-122.946;2023-11-21T10:10:43;101838.19;;;5.34;100.00
51468;BME280;37545;45.302;-122.946;2023-11-21T10:13:13;101835.91;;;5.39;100.00
51468;BME280;37545;45.302;-122.946;2023-11-21T10:15:43;101830.69;;;5.37;100.00
51468;BME280;37545;45.302;-122.946;2023-11-21T10:18:16;101832.25;;;5.35;100.00
51468;BME280;37545;45.302;-122.946;2023-11-21T10:20:46;101832.34;;;5.37;100.00
51468;BME280;37545;45.302;-122.946;2023-11-21T10:23:17;101824.84;;;5.40;100.00
51468;BME280;37545;45.302;-122.946;2023-11-21T10:25:50;101820.59;;;5.40;100.00
51468;BME280;37545;45.302;-122.946;2023-11-21T10:28:18;101823.28;;;5.42;100.00
51468;BME280;37545;45.302;-122.946;2023-11-21T10:30:47;101830.09;;;5.41;100.00
51468;BME280;37545;45.302;-122.946;2023-11-21T10:33:16;101818.72;;;5.38;100.00
51468;BME280;37545;45.302;-122.946;2023-11-21T10:35:45;101828.59;;;5.45;100.00
51468;BME280;37545;45.302;-122.946;2023-11-21T10:38:17;101829.53;;;5.45;100.00
51468;BME280;37545;45.302;-122.946;2023-11-21T10:40:49;101815.78;;;5.45;100.00
51468;BME280;37545;45.302;-122.946;2023-11-21T10:43:18;101815.88;;;5.46;100.00
51468;BME280;37545;45.302;-122.946;2023-11-21T10:45:47;101828.59;;;5.45;100.00
51468;BME280;37545;45.302;-122.946;2023-11-21T10:48:16;101825.09;;;5.43;100.00
51468;BME280;37545;45.302;-122.946;2023-11-21T10:50:45;101815.59;;;5.42;100.00
51468;BME280;37545;45.302;-122.946;2023-11-21T10:53:14;101819.03;;;5.42;100.00
51468;BME280;37545;45.302;-122.946;2023-11-21T10:55:43;101819.53;;;5.37;100.00
51468;BME280;37545;45.302;-122.946;2023-11-21T10:58:14;101815.66;;;5.30;100.00
51468;BME280;37545;45.302;-122.946;2023-11-21T11:00:43;101808.22;;;5.21;100.00
51468;BME280;37545;45.302;-122.946;2023-11-21T11:03:13;101801.69;;;5.13;100.00
51468;BME280;37545;45.302;-122.946;2023-11-21T11:05:43;101807.91;;;5.17;100.00
51468;BME280;37545;45.302;-122.946;2023-11-21T11:08:19;101808.00;;;5.18;100.00
51468;BME280;37545;45.302;-122.946;2023-11-21T11:10:52;101809.78;;;5.19;100.00
51468;BME280;37545;45.302;-122.946;2023-11-21T11:13:23;101795.56;;;5.11;100.00
51468;BME280;37545;45.302;-122.946;2023-11-21T11:15:58;101803.66;;;5.17;100.00
51468;BME280;37545;45.302;-122.946;2023-11-21T11:18:31;101807.00;;;5.16;100.00
51468;BME280;37545;45.302;-122.946;2023-11-21T11:21:07;101807.78;;;5.15;100.00
51468;BME280;37545;45.302;-122.946;2023-11-21T11:23:52;101801.09;;;5.17;100.00
51468;BME280;37545;45.302;-122.946;2023-11-21T11:26:36;101790.63;;;5.14;100.00
51468;BME280;37545;45.302;-122.946;2023-11-21T11:29:17;101795.94;;;5.17;100.00
51468;BME280;37545;45.302;-122.946;2023-11-21T11:31:58;101801.88;;;5.16;100.00
51468;BME280;37545;45.302;-122.946;2023-11-21T11:34:32;101797.00;;;5.08;100.00
51468;BME280;37545;45.302;-122.946;2023-11-21T11:37:04;101801.81;;;5.03;100.00
51468;BME280;37545;45.302;-122.946;2023-11-21T11:39:39;101821.28;;;4.99;100.00
51468;BME280;37545;45.302;-122.946;2023-11-21T11:42:13;101815.22;;;4.99;100.00
51468;BME280;37545;45.302;-122.946;2023-11-21T11:44:52;101808.53;;;5.01;100.00
51468;BME280;37545;45.302;-122.946;2023-11-21T11:47:34;101801.81;;;5.03;100.00
51468;BME280;37545;45.302;-122.946;2023-11-21T11:50:05;101810.31;;;5.02;100.00
51468;BME280;37545;45.302;-122.946;2023-11-21T11:52:41;101813.88;;;5.04;100.00
51468;BME280;37545;45.302;-122.946;2023-11-21T11:55:11;101806.19;;;5.04;100.00
51468;BME280;37545;45.302;-122.946;2023-11-21T11:57:41;101808.06;;;5.07;100.00
51468;BME280;37545;45.302;-122.946;2023-11-21T12:00:15;101813.97;;;5.06;100.00
51468;BME280;37545;45.302;-122.946;2023-11-21T12:02:48;101822.34;;;5.03;100.00
51468;BME280;37545;45.302;-122.946;2023-11-21T12:05:18;101826.28;;;4.98;100.00
51468;BME280;37545;45.302;-122.946;2023-11-21T12:07:51;101812.72;;;4.87;100.00
51468;BME280;37545;45.302;-122.946;2023-11-21T12:10:25;101810.25;;;4.89;100.00
51468;BME280;37545;45.302;-122.946;2023-11-21T12:12:55;101800.69;;;4.86;100.00
51468;BME280;37545;45.302;-122.946;2023-11-21T12:15:26;101790.09;;;4.81;100.00
51468;BME280;37545;45.302;-122.946;2023-11-21T12:17:56;101794.00;;;4.76;100.00
51468;BME280;37545;45.302;-122.946;2023-11-21T12:20:27;101784.34;;;4.72;100.00
51468;BME280;37545;45.302;-122.946;2023-11-21T12:22:57;101781.47;;;4.68;100.00
51468;BME280;37545;45.302;-122.946;2023-11-21T12:25:26;101778.66;;;4.65;100.00
51468;BME280;37545;45.302;-122.946;2023-11-21T12:27:58;101783.69;;;4.63;100.00
51468;BME280;37545;45.302;-122.946;2023-11-21T12:30:34;101779.34;;;4.62;100.00
51468;BME280;37545;45.302;-122.946;2023-11-21T12:33:10;101785.25;;;4.61;100.00
51468;BME280;37545;45.302;-122.946;2023-11-21T12:35:43;101795.53;;;4.61;100.00
51468;BME280;37545;45.302;-122.946;2023-11-21T12:38:12;101809.78;;;4.57;100.00